Time;durP1;ratioP1;P1;durP2;ratioP2;P2;SDS_P1;SDS_P2;PMS_P1;PMS_P2;Temp;Humidity;BMP_temperature;BMP_pressure;BME280_temperature;BME280_humidity;BME280_pressure;Samples;Min_cycle;Max_cycle;Signal;HPM_P1;HPM_P2
2022/05/14 00:01:13;;;;;;;7.03;3.97;;;;;;;;;;5070586;28;20029;-74
2022/05/14 00:03:40;;;;;;;8.15;4.35;;;;;;;;;;5070349;28;20036;-72
2022/05/14 00:06:09;;;;;;;8.15;4.03;;;;;;;;;;5068487;28;20063;-71
2022/05/14 00:08:36;;;;;;;4.22;3.60;;;;;;;;;;5070838;28;20025;-72
2022/05/14 00:13:47;;;;;;;9.18;3.90;;;;;;;;;;5067511;28;20033;-73
2022/05/14 00:16:14;;;;;;;6.28;3.90;;;;;;;;;;5071491;28;20036;-74
2022/05/14 00:18:41;;;;;;;9.93;4.35;;;;;;;;;;5071377;28;20104;-68
2022/05/14 00:21:08;;;;;;;14.07;4.30;;;;;;;;;;5071656;28;20128;-71
2022/05/14 00:23:34;;;;;;;6.13;4.10;;;;;;;;;;5071065;28;20029;-68
2022/05/14 00:25:59;;;;;;;6.57;4.13;;;;;;;;;;5068851;28;20071;-70
2022/05/14 00:28:25;;;;;;;7.63;4.20;;;;;;;;;;5070699;28;20129;-70
2022/05/14 00:30:52;;;;;;;6.38;4.32;;;;;;;;;;5060872;28;20029;-72
2022/05/14 00:33:18;;;;;;;7.45;4.28;;;;;;;;;;5053846;28;20033;-72
2022/05/14 00:35:44;;;;;;;6.75;3.88;;;;;;;;;;5065632;28;20029;-71
2022/05/14 00:38:10;;;;;;;5.93;4.20;;;;;;;;;;5068528;28;20494;-70
2022/05/14 00:40:57;;;;;;;4.90;3.60;;;;;;;;;;5058734;28;20025;-71
2022/05/14 00:43:25;;;;;;;4.63;3.83;;;;;;;;;;5051208;28;20037;-72
2022/05/14 00:45:58;;;;;;;5.72;4.15;;;;;;;;;;5049731;28;20017;-70
2022/05/14 00:48:28;;;;;;;13.30;5.10;;;;;;;;;;5051104;28;20036;-66
2022/05/14 00:50:57;;;;;;;7.95;4.40;;;;;;;;;;5067954;28;20552;-71
2022/05/14 00:53:26;;;;;;;9.20;4.57;;;;;;;;;;5071305;28;20035;-69
2022/05/14 00:55:56;;;;;;;7.90;4.90;;;;;;;;;;5068936;28;20045;-64
2022/05/14 00:58:36;;;;;;;8.68;4.25;;;;;;;;;;5069285;28;20045;-68
2022/05/14 01:01:03;;;;;;;7.10;4.25;;;;;;;;;;5069917;28;20487;-69
2022/05/14 01:03:29;;;;;;;11.90;4.80;;;;;;;;;;5070941;28;20445;-70
2022/05/14 01:05:59;;;;;;;9.98;4.70;;;;;;;;;;5069935;28;20119;-71
2022/05/14 01:08:27;;;;;;;7.03;5.03;;;;;;;;;;5071146;28;20039;-71
2022/05/14 01:10:53;;;;;;;5.97;4.80;;;;;;;;;;5070000;28;20024;-73
2022/05/14 01:13:19;;;;;;;7.10;5.07;;;;;;;;;;5069919;28;20040;-71
2022/05/14 01:15:48;;;;;;;10.95;5.95;;;;;;;;;;5069878;28;20328;-70
2022/05/14 01:18:20;;;;;;;8.80;5.40;;;;;;;;;;5069602;28;20042;-70
2022/05/14 01:20:56;;;;;;;7.80;5.28;;;;;;;;;;5069782;28;20040;-71
2022/05/14 01:26:29;;;;;;;8.70;5.72;;;;;;;;;;5073379;28;20064;-72
2022/05/14 01:29:04;;;;;;;8.77;6.65;;;;;;;;;;5073482;28;20111;-70
2022/05/14 01:31:30;;;;;;;9.13;6.63;;;;;;;;;;5073567;28;20033;-67
2022/05/14 01:34:02;;;;;;;9.70;6.47;;;;;;;;;;5073666;28;20423;-69
2022/05/14 01:36:29;;;;;;;10.35;6.72;;;;;;;;;;5073083;28;20033;-68
2022/05/14 01:38:55;;;;;;;7.45;6.38;;;;;;;;;;5074568;28;20487;-71
2022/05/14 01:41:22;;;;;;;10.80;6.57;;;;;;;;;;5073237;28;20119;-67
2022/05/14 01:43:49;;;;;;;13.48;7.07;;;;;;;;;;5073234;28;20131;-69
2022/05/14 01:46:15;;;;;;;8.15;6.40;;;;;;;;;;5073462;28;20051;-71
2022/05/14 01:48:41;;;;;;;7.45;6.10;;;;;;;;;;5068690;28;20056;-68
2022/05/14 01:51:07;;;;;;;8.50;7.05;;;;;;;;;;5063469;28;20076;-69
2022/05/14 01:53:33;;;;;;;8.02;6.53;;;;;;;;;;5066825;28;20028;-70
2022/05/14 01:55:59;;;;;;;8.25;6.22;;;;;;;;;;5061711;28;20102;-69
2022/05/14 01:58:37;;;;;;;11.15;6.68;;;;;;;;;;5054245;28;20395;-69
2022/05/14 02:01:19;;;;;;;9.45;6.68;;;;;;;;;;5053009;28;20033;-69
2022/05/14 02:04:10;;;;;;;8.82;6.68;;;;;;;;;;5052703;28;20052;-65
2022/05/14 02:06:38;;;;;;;8.20;6.80;;;;;;;;;;5069417;28;20398;-69
2022/05/14 02:09:07;;;;;;;9.15;6.68;;;;;;;;;;5052671;28;20017;-71
2022/05/14 02:11:33;;;;;;;9.27;7.00;;;;;;;;;;5052673;28;20052;-68
2022/05/14 02:14:24;;;;;;;12.85;6.63;;;;;;;;;;5052486;28;20065;-71
2022/05/14 02:16:50;;;;;;;10.35;7.28;;;;;;;;;;5053206;28;20037;-68
2022/05/14 02:19:17;;;;;;;7.32;6.50;;;;;;;;;;5052378;28;20036;-66
2022/05/14 02:21:42;;;;;;;7.78;6.32;;;;;;;;;;5053918;28;20119;-71
2022/05/14 02:24:10;;;;;;;7.72;6.65;;;;;;;;;;5052042;28;20029;-70
2022/05/14 02:26:37;;;;;;;9.90;6.63;;;;;;;;;;5052010;28;20419;-69
2022/05/14 02:29:04;;;;;;;9.70;6.78;;;;;;;;;;5052248;28;20029;-67
2022/05/14 02:31:31;;;;;;;9.60;7.00;;;;;;;;;;5052205;28;20037;-68
2022/05/14 02:33:57;;;;;;;8.55;6.25;;;;;;;;;;5052470;28;20029;-72
2022/05/14 02:36:23;;;;;;;10.82;6.50;;;;;;;;;;5051766;28;20066;-70
2022/05/14 02:38:49;;;;;;;8.77;6.32;;;;;;;;;;5053655;28;20100;-69
2022/05/14 02:41:16;;;;;;;14.95;7.18;;;;;;;;;;5052435;28;20033;-72
2022/05/14 02:43:42;;;;;;;10.15;6.47;;;;;;;;;;5057550;28;20028;-66
2022/05/14 02:46:09;;;;;;;9.80;6.55;;;;;;;;;;5056369;28;20116;-70
2022/05/14 02:48:36;;;;;;;8.65;6.70;;;;;;;;;;5061228;28;20494;-70
2022/05/14 02:51:02;;;;;;;9.20;6.97;;;;;;;;;;5071464;28;20040;-72
2022/05/14 02:53:28;;;;;;;11.13;6.82;;;;;;;;;;5073033;28;20020;-73
2022/05/14 02:55:54;;;;;;;12.20;6.93;;;;;;;;;;5059330;28;20041;-67
2022/05/14 03:01:07;;;;;;;21.55;9.13;;;;;;;;;;5068141;28;20025;-70
2022/05/14 03:03:33;;;;;;;13.27;7.95;;;;;;;;;;5052544;28;20031;-71
2022/05/14 03:05:59;;;;;;;8.15;7.20;;;;;;;;;;5057517;28;20492;-71
2022/05/14 03:08:26;;;;;;;9.30;8.05;;;;;;;;;;5051474;28;20024;-67
2022/05/14 03:10:52;;;;;;;13.90;8.27;;;;;;;;;;5052757;28;20029;-73
2022/05/14 03:13:18;;;;;;;13.05;8.82;;;;;;;;;;5053764;28;20082;-65
2022/05/14 03:15:44;;;;;;;14.27;8.57;;;;;;;;;;5068575;28;20543;-72
2022/05/14 03:18:10;;;;;;;14.65;8.68;;;;;;;;;;5070176;28;20123;-67
2022/05/14 03:20:36;;;;;;;14.52;8.38;;;;;;;;;;5071819;28;20032;-70
2022/05/14 03:23:02;;;;;;;14.18;8.00;;;;;;;;;;5072077;28;20103;-66
2022/05/14 03:25:28;;;;;;;8.95;7.90;;;;;;;;;;5072184;28;20040;-72
2022/05/14 03:27:54;;;;;;;8.50;6.82;;;;;;;;;;5070806;28;20422;-68
2022/05/14 03:30:20;;;;;;;10.85;7.10;;;;;;;;;;5070848;28;20089;-69
2022/05/14 03:32:46;;;;;;;11.18;7.30;;;;;;;;;;5072321;28;20493;-72
2022/05/14 03:35:12;;;;;;;16.90;8.00;;;;;;;;;;5072040;28;20498;-72
2022/05/14 03:37:39;;;;;;;15.07;8.73;;;;;;;;;;5070647;28;20440;-71
2022/05/14 03:40:06;;;;;;;14.40;7.80;;;;;;;;;;5058959;28;20037;-71
2022/05/14 03:42:32;;;;;;;24.65;9.02;;;;;;;;;;5087620;28;20048;-71
2022/05/14 03:44:58;;;;;;;17.95;8.07;;;;;;;;;;5069561;28;20044;-69
2022/05/14 03:47:24;;;;;;;26.38;9.40;;;;;;;;;;5067871;28;20028;-71
2022/05/14 03:49:50;;;;;;;16.83;7.68;;;;;;;;;;5070094;28;20055;-67
2022/05/14 03:52:17;;;;;;;12.70;8.48;;;;;;;;;;5070148;28;20024;-70
2022/05/14 03:54:45;;;;;;;18.00;8.30;;;;;;;;;;5071689;28;20048;-68
2022/05/14 03:57:13;;;;;;;11.85;6.82;;;;;;;;;;5069851;28;20045;-68
2022/05/14 03:59:40;;;;;;;15.10;7.75;;;;;;;;;;5070328;28;20048;-69
2022/05/14 04:02:06;;;;;;;22.35;8.45;;;;;;;;;;5070242;28;20028;-72
2022/05/14 04:04:33;;;;;;;29.52;8.50;;;;;;;;;;5070007;28;20131;-68
2022/05/14 04:06:59;;;;;;;14.35;6.78;;;;;;;;;;5069721;28;20029;-72
2022/05/14 04:09:26;;;;;;;14.73;6.97;;;;;;;;;;5071591;28;20036;-69
2022/05/14 04:11:53;;;;;;;9.70;6.25;;;;;;;;;;5070557;28;20025;-70
2022/05/14 04:14:20;;;;;;;11.10;5.90;;;;;;;;;;5071499;28;20548;-68
2022/05/14 04:16:46;;;;;;;11.32;6.88;;;;;;;;;;5062401;28;20025;-70
2022/05/14 04:19:13;;;;;;;20.25;8.15;;;;;;;;;;5053183;28;20290;-71
2022/05/14 04:21:38;;;;;;;13.15;6.57;;;;;;;;;;5048171;28;20369;-71
2022/05/14 04:24:05;;;;;;;9.25;7.10;;;;;;;;;;5049715;28;20029;-71
2022/05/14 04:26:31;;;;;;;14.75;6.80;;;;;;;;;;5051000;28;20107;-70
2022/05/14 04:28:59;;;;;;;20.38;7.85;;;;;;;;;;5050861;28;20128;-73
2022/05/14 04:31:25;;;;;;;13.90;6.00;;;;;;;;;;5050633;28;20055;-74
2022/05/14 04:33:52;;;;;;;12.38;5.80;;;;;;;;;;5051948;28;20438;-65
2022/05/14 04:36:18;;;;;;;16.00;6.28;;;;;;;;;;5050682;28;20029;-67
2022/05/14 04:38:44;;;;;;;19.45;7.05;;;;;;;;;;5050766;28;20136;-67
2022/05/14 04:41:10;;;;;;;23.75;8.45;;;;;;;;;;5055644;28;20162;-65
2022/05/14 04:43:36;;;;;;;13.90;6.32;;;;;;;;;;5067562;28;20044;-66
2022/05/14 04:46:07;;;;;;;10.93;6.35;;;;;;;;;;5052372;28;20384;-66
2022/05/14 04:48:35;;;;;;;8.98;5.90;;;;;;;;;;5056941;28;20360;-65
2022/05/14 04:51:01;;;;;;;9.27;6.03;;;;;;;;;;5057256;28;20033;-66
2022/05/14 04:53:27;;;;;;;9.98;6.85;;;;;;;;;;5061483;28;20044;-65
2022/05/14 04:55:53;;;;;;;10.57;6.13;;;;;;;;;;5051005;28;20049;-66
2022/05/14 04:58:20;;;;;;;8.95;6.57;;;;;;;;;;5051374;28;20033;-70
2022/05/14 05:00:47;;;;;;;14.60;5.93;;;;;;;;;;5054864;28;20395;-70
2022/05/14 05:03:22;;;;;;;16.15;6.22;;;;;;;;;;5063718;28;20111;-75
2022/05/14 05:05:56;;;;;;;11.75;5.57;;;;;;;;;;5069139;28;20040;-71
2022/05/14 05:08:24;;;;;;;13.88;6.40;;;;;;;;;;5069491;28;20479;-70
2022/05/14 05:10:50;;;;;;;22.52;7.00;;;;;;;;;;5060639;28;20055;-69
2022/05/14 05:13:19;;;;;;;11.68;6.15;;;;;;;;;;5056091;28;20399;-74
2022/05/14 05:15:45;;;;;;;10.38;6.07;;;;;;;;;;5055966;28;20017;-73
2022/05/14 05:18:11;;;;;;;9.13;5.45;;;;;;;;;;5055754;28;20083;-78
2022/05/14 05:20:40;;;;;;;9.45;5.90;;;;;;;;;;5055820;28;20025;-71
2022/05/14 05:23:10;;;;;;;15.10;6.32;;;;;;;;;;5056248;28;20108;-74
2022/05/14 05:25:36;;;;;;;16.25;6.55;;;;;;;;;;5056003;28;20021;-78
2022/05/14 05:28:02;;;;;;;13.07;6.63;;;;;;;;;;5055660;28;20043;-76
2022/05/14 05:30:27;;;;;;;10.02;5.70;;;;;;;;;;5055843;28;20029;-72
2022/05/14 05:32:53;;;;;;;9.45;5.50;;;;;;;;;;5055668;28;20025;-73
2022/05/14 05:35:21;;;;;;;8.55;5.50;;;;;;;;;;5054292;28;20329;-75
2022/05/14 05:37:47;;;;;;;10.23;6.55;;;;;;;;;;5055395;28;20123;-77
2022/05/14 05:40:15;;;;;;;9.43;6.10;;;;;;;;;;5055395;28;20021;-77
2022/05/14 05:42:41;;;;;;;9.32;6.15;;;;;;;;;;5068638;28;20116;-76
2022/05/14 05:45:08;;;;;;;12.10;5.68;;;;;;;;;;5065859;28;20056;-77
2022/05/14 05:47:34;;;;;;;11.20;6.18;;;;;;;;;;5055087;28;20104;-77
2022/05/14 05:49:59;;;;;;;9.98;6.65;;;;;;;;;;5055479;28;20029;-75
2022/05/14 05:52:25;;;;;;;13.77;6.40;;;;;;;;;;5073481;28;20353;-73
2022/05/14 05:57:39;;;;;;;19.92;7.95;;;;;;;;;;5054701;28;20039;-73
2022/05/14 06:00:10;;;;;;;14.55;6.80;;;;;;;;;;5057030;28;20029;-73
2022/05/14 06:02:37;;;;;;;13.50;6.38;;;;;;;;;;5060887;28;20045;-73
2022/05/14 06:05:05;;;;;;;15.75;7.40;;;;;;;;;;5055235;28;20151;-74
2022/05/14 06:07:32;;;;;;;17.65;6.63;;;;;;;;;;5053650;28;20087;-75
2022/05/14 06:09:58;;;;;;;16.02;7.70;;;;;;;;;;5053771;28;20476;-70
2022/05/14 06:12:24;;;;;;;10.88;7.13;;;;;;;;;;5062168;28;20384;-71
2022/05/14 06:14:51;;;;;;;12.23;7.07;;;;;;;;;;5057710;28;20037;-72
2022/05/14 06:17:17;;;;;;;12.45;6.75;;;;;;;;;;5054700;28;20038;-70
2022/05/14 06:19:43;;;;;;;17.23;7.82;;;;;;;;;;5054105;28;20025;-75
2022/05/14 06:22:09;;;;;;;15.77;8.13;;;;;;;;;;5054825;28;20079;-76
2022/05/14 06:24:38;;;;;;;11.32;7.07;;;;;;;;;;5056408;28;20391;-75
2022/05/14 06:27:04;;;;;;;17.45;7.43;;;;;;;;;;5054575;28;20082;-72
2022/05/14 06:29:31;;;;;;;13.07;7.45;;;;;;;;;;5054594;28;20472;-71
2022/05/14 06:31:58;;;;;;;14.02;8.20;;;;;;;;;;5054524;28;20059;-77
2022/05/14 06:34:24;;;;;;;13.55;7.68;;;;;;;;;;5067655;28;20048;-71
2022/05/14 06:36:50;;;;;;;10.77;7.60;;;;;;;;;;5067486;28;20121;-70
2022/05/14 06:39:17;;;;;;;9.73;7.53;;;;;;;;;;5062876;28;20104;-71
2022/05/14 06:41:42;;;;;;;11.30;7.80;;;;;;;;;;5073749;28;20112;-75
2022/05/14 06:44:08;;;;;;;16.25;8.82;;;;;;;;;;5073361;28;20112;-74
2022/05/14 06:46:35;;;;;;;13.90;7.97;;;;;;;;;;5073025;28;20040;-73
2022/05/14 06:49:03;;;;;;;19.40;8.60;;;;;;;;;;5073365;28;20076;-72
2022/05/14 06:51:31;;;;;;;17.13;9.32;;;;;;;;;;5066252;28;20058;-69
2022/05/14 06:54:03;;;;;;;19.63;9.52;;;;;;;;;;5063134;28;20028;-70
2022/05/14 06:56:32;;;;;;;12.43;8.53;;;;;;;;;;5063515;28;20045;-71
2022/05/14 06:58:59;;;;;;;13.93;10.70;;;;;;;;;;5062756;28;20258;-72
2022/05/14 07:01:25;;;;;;;19.48;10.27;;;;;;;;;;5066383;28;20075;-70
2022/05/14 07:06:40;;;;;;;12.23;9.35;;;;;;;;;;5071368;28;20028;-76
2022/05/14 07:09:09;;;;;;;12.95;8.88;;;;;;;;;;5071566;28;20536;-75
2022/05/14 07:11:37;;;;;;;14.90;9.48;;;;;;;;;;5072008;28;20033;-71
2022/05/14 07:14:04;;;;;;;17.08;10.35;;;;;;;;;;5070851;28;20021;-78
2022/05/14 07:16:30;;;;;;;10.85;8.25;;;;;;;;;;5070102;28;20036;-75
2022/05/14 07:18:56;;;;;;;10.30;7.43;;;;;;;;;;5052987;28;20035;-78
2022/05/14 07:21:22;;;;;;;10.13;6.97;;;;;;;;;;5052105;28;20037;-75
2022/05/14 07:23:47;;;;;;;11.10;8.52;;;;;;;;;;5057916;28;20028;-72
2022/05/14 07:26:14;;;;;;;12.07;7.38;;;;;;;;;;5071565;28;20044;-71
2022/05/14 07:28:39;;;;;;;12.75;8.02;;;;;;;;;;5071564;28;20043;-74
2022/05/14 07:31:05;;;;;;;11.95;7.45;;;;;;;;;;5071522;28;20117;-71
2022/05/14 07:33:32;;;;;;;13.90;7.88;;;;;;;;;;5070406;28;20455;-73
2022/05/14 07:36:05;;;;;;;32.72;10.02;;;;;;;;;;5071590;28;20036;-74
2022/05/14 07:38:35;;;;;;;10.45;7.50;;;;;;;;;;5071112;28;20112;-72
2022/05/14 07:41:02;;;;;;;11.18;7.22;;;;;;;;;;5071425;28;20104;-73
2022/05/14 07:43:30;;;;;;;13.27;8.00;;;;;;;;;;5071340;28;20033;-76
2022/05/14 07:46:01;;;;;;;18.73;8.73;;;;;;;;;;5070580;28;20438;-71
2022/05/14 07:48:35;;;;;;;19.17;8.07;;;;;;;;;;5071082;28;20064;-76
2022/05/14 07:51:03;;;;;;;13.18;8.18;;;;;;;;;;5071161;28;20032;-73
2022/05/14 07:53:30;;;;;;;12.60;6.90;;;;;;;;;;5070527;28;20468;-73
2022/05/14 07:55:57;;;;;;;10.88;6.22;;;;;;;;;;5050932;28;20041;-72
2022/05/14 07:58:26;;;;;;;8.63;6.38;;;;;;;;;;5050836;28;20037;-71
2022/05/14 08:00:53;;;;;;;11.40;7.25;;;;;;;;;;5051213;28;20029;-71
2022/05/14 08:03:22;;;;;;;12.60;7.50;;;;;;;;;;5051146;28;20464;-73
2022/05/14 08:05:50;;;;;;;11.23;7.85;;;;;;;;;;5051506;28;20067;-74
2022/05/14 08:08:16;;;;;;;18.30;7.78;;;;;;;;;;5050738;28;20074;-71
2022/05/14 08:10:43;;;;;;;13.13;6.78;;;;;;;;;;5051366;28;20028;-72
2022/05/14 08:13:14;;;;;;;10.85;6.30;;;;;;;;;;5051480;28;20482;-75
2022/05/14 08:15:41;;;;;;;13.13;6.60;;;;;;;;;;5050832;28;20044;-73
2022/05/14 08:18:07;;;;;;;18.40;7.75;;;;;;;;;;5051440;28;20017;-74
2022/05/14 08:20:33;;;;;;;12.75;6.38;;;;;;;;;;5049901;28;20507;-73
2022/05/14 08:25:44;;;;;;;12.38;6.93;;;;;;;;;;5051234;28;20633;-73
2022/05/14 08:28:10;;;;;;;11.45;6.47;;;;;;;;;;5051267;28;20100;-73
2022/05/14 08:30:37;;;;;;;10.55;6.65;;;;;;;;;;5049720;28;20047;-74
2022/05/14 08:33:04;;;;;;;14.10;8.48;;;;;;;;;;5054479;28;20036;-78
2022/05/14 08:35:31;;;;;;;10.55;5.93;;;;;;;;;;5056396;28;20063;-80
2022/05/14 08:37:57;;;;;;;10.95;7.07;;;;;;;;;;5054870;28;20036;-76
2022/05/14 08:40:45;;;;;;;15.55;6.30;;;;;;;;;;5055302;28;20044;-79
2022/05/14 08:43:23;;;;;;;12.30;6.75;;;;;;;;;;5055391;28;20060;-78
2022/05/14 08:45:49;;;;;;;11.95;6.28;;;;;;;;;;5054571;28;20056;-75
2022/05/14 08:48:19;;;;;;;9.82;6.40;;;;;;;;;;5055136;28;20032;-75
2022/05/14 08:50:54;;;;;;;10.63;5.65;;;;;;;;;;5054923;28;20498;-73
2022/05/14 08:53:23;;;;;;;10.02;5.90;;;;;;;;;;5054721;28;20032;-73
2022/05/14 08:56:00;;;;;;;8.65;5.35;;;;;;;;;;5055029;28;20048;-74
2022/05/14 08:59:03;;;;;;;10.30;5.80;;;;;;;;;;5054919;28;20031;-71
2022/05/14 09:01:34;;;;;;;8.75;4.97;;;;;;;;;;5054392;28;20556;-72
2022/05/14 09:04:00;;;;;;;12.13;5.60;;;;;;;;;;5054925;28;20037;-73
2022/05/14 09:06:26;;;;;;;8.73;5.63;;;;;;;;;;5054699;28;20328;-77
2022/05/14 09:08:52;;;;;;;8.25;5.93;;;;;;;;;;5059029;28;20040;-76
2022/05/14 09:11:36;;;;;;;8.80;5.53;;;;;;;;;;5066243;28;20482;-80
2022/05/14 09:14:03;;;;;;;11.27;6.28;;;;;;;;;;5074025;28;20040;-74
2022/05/14 09:16:32;;;;;;;9.73;5.18;;;;;;;;;;5073690;28;20107;-77
2022/05/14 09:18:58;;;;;;;14.80;6.03;;;;;;;;;;5055303;28;20025;-75
2022/05/14 09:21:26;;;;;;;8.95;5.20;;;;;;;;;;5054252;28;20035;-73
2022/05/14 09:23:57;;;;;;;8.82;5.05;;;;;;;;;;5055185;28;20080;-74
2022/05/14 09:26:32;;;;;;;7.63;4.65;;;;;;;;;;5067470;28;20074;-75
2022/05/14 09:29:12;;;;;;;8.70;4.90;;;;;;;;;;5059605;28;20068;-75
2022/05/14 09:31:50;;;;;;;7.93;4.85;;;;;;;;;;5065645;28;20493;-74
2022/05/14 09:34:17;;;;;;;8.57;4.55;;;;;;;;;;5054299;28;20076;-71
2022/05/14 09:36:48;;;;;;;7.32;4.88;;;;;;;;;;5056160;28;20447;-72
2022/05/14 09:39:16;;;;;;;6.22;4.50;;;;;;;;;;5064891;28;20111;-74
2022/05/14 09:41:49;;;;;;;5.85;4.63;;;;;;;;;;5068689;28;20039;-74
2022/05/14 09:44:21;;;;;;;7.43;4.07;;;;;;;;;;5053972;28;20049;-75
2022/05/14 09:46:47;;;;;;;7.63;4.25;;;;;;;;;;5053234;28;20051;-70
2022/05/14 09:49:25;;;;;;;4.90;3.90;;;;;;;;;;5052076;28;20028;-71
2022/05/14 09:52:07;;;;;;;6.63;4.60;;;;;;;;;;5053220;28;20060;-73
2022/05/14 09:54:43;;;;;;;5.93;4.30;;;;;;;;;;5053962;28;20075;-73
2022/05/14 09:57:44;;;;;;;7.72;4.18;;;;;;;;;;5065440;28;20040;-72
2022/05/14 10:00:17;;;;;;;6.70;4.30;;;;;;;;;;5072989;28;20032;-72
2022/05/14 10:03:08;;;;;;;9.25;4.38;;;;;;;;;;5073258;28;20509;-71
2022/05/14 10:06:05;;;;;;;8.15;4.03;;;;;;;;;;5072675;28;20044;-70
2022/05/14 10:08:46;;;;;;;6.25;3.80;;;;;;;;;;5073708;28;20475;-72
2022/05/14 10:11:25;;;;;;;6.03;3.97;;;;;;;;;;5073733;28;20036;-71
2022/05/14 10:14:05;;;;;;;10.07;4.10;;;;;;;;;;5072684;28;20089;-71
2022/05/14 10:16:54;;;;;;;10.65;4.28;;;;;;;;;;5073488;28;20043;-72
2022/05/14 10:19:31;;;;;;;6.13;4.18;;;;;;;;;;5066064;28;20087;-73
2022/05/14 10:22:05;;;;;;;7.70;4.43;;;;;;;;;;5054621;28;20086;-70
2022/05/14 10:27:55;;;;;;;8.10;4.03;;;;;;;;;;5053054;28;20083;-72
2022/05/14 10:30:31;;;;;;;7.38;4.20;;;;;;;;;;5058012;28;20044;-73
2022/05/14 10:33:03;;;;;;;11.05;5.25;;;;;;;;;;5052671;28;20036;-72
2022/05/14 10:35:43;;;;;;;5.53;4.10;;;;;;;;;;5052714;28;20039;-77
2022/05/14 10:38:42;;;;;;;8.68;4.30;;;;;;;;;;5065051;28;20483;-74
2022/05/14 10:41:08;;;;;;;5.25;3.97;;;;;;;;;;5069187;28;20033;-73
2022/05/14 10:43:44;;;;;;;6.47;4.40;;;;;;;;;;5064952;28;20029;-71
2022/05/14 10:46:15;;;;;;;5.55;4.10;;;;;;;;;;5052843;28;20048;-72
2022/05/14 10:48:42;;;;;;;6.50;4.00;;;;;;;;;;5053355;28;20037;-71
2022/05/14 10:51:12;;;;;;;8.90;5.20;;;;;;;;;;5052585;28;20475;-71
2022/05/14 10:53:41;;;;;;;8.40;4.72;;;;;;;;;;5061976;28;20037;-71
2022/05/14 10:56:13;;;;;;;9.20;5.78;;;;;;;;;;5055575;28;20053;-71
2022/05/14 10:58:57;;;;;;;9.05;4.95;;;;;;;;;;5052116;28;20459;-72
2022/05/14 11:01:41;;;;;;;6.68;4.53;;;;;;;;;;5050084;28;20518;-77
2022/05/14 11:04:07;;;;;;;10.93;4.90;;;;;;;;;;5051084;28;20051;-76
2022/05/14 11:06:46;;;;;;;7.38;4.40;;;;;;;;;;5051949;28;20028;-77
2022/05/14 11:09:17;;;;;;;7.85;4.60;;;;;;;;;;5052547;28;20148;-76
2022/05/14 11:11:49;;;;;;;5.65;4.28;;;;;;;;;;5052745;28;20391;-75
2022/05/14 11:14:15;;;;;;;8.70;4.30;;;;;;;;;;5051837;28;20044;-79
2022/05/14 11:16:45;;;;;;;7.72;4.80;;;;;;;;;;5052688;28;20456;-76
2022/05/14 11:19:24;;;;;;;7.95;4.53;;;;;;;;;;5052028;28;20056;-76
2022/05/14 11:21:50;;;;;;;9.30;6.00;;;;;;;;;;5051508;28;20040;-77
2022/05/14 11:24:17;;;;;;;7.82;4.60;;;;;;;;;;5051985;28;20021;-76
2022/05/14 11:26:52;;;;;;;6.97;4.32;;;;;;;;;;5055958;28;20098;-74
2022/05/14 11:29:25;;;;;;;9.48;4.55;;;;;;;;;;5060131;28;20028;-73
2022/05/14 11:32:04;;;;;;;6.63;4.03;;;;;;;;;;5072096;28;20479;-74
2022/05/14 11:34:30;;;;;;;9.13;4.88;;;;;;;;;;5064193;28;20029;-74
2022/05/14 11:36:59;;;;;;;6.45;4.55;;;;;;;;;;5055524;28;20103;-74
2022/05/14 11:39:31;;;;;;;12.05;8.25;;;;;;;;;;5072251;28;20029;-73
2022/05/14 11:42:22;;;;;;;26.93;18.47;;;;;;;;;;5071915;28;20041;-75
2022/05/14 11:44:53;;;;;;;15.75;9.82;;;;;;;;;;5071917;28;20091;-73
2022/05/14 11:47:28;;;;;;;9.32;5.25;;;;;;;;;;5051717;28;20399;-74
2022/05/14 11:49:57;;;;;;;6.43;4.40;;;;;;;;;;5051534;28;20029;-75
2022/05/14 11:52:40;;;;;;;6.68;4.30;;;;;;;;;;5050643;28;20388;-72
2022/05/14 11:55:18;;;;;;;6.85;4.10;;;;;;;;;;5051845;28;20399;-73
2022/05/14 11:58:05;;;;;;;13.52;4.28;;;;;;;;;;5051175;28;20112;-74
2022/05/14 12:00:34;;;;;;;10.13;5.18;;;;;;;;;;5051994;28;20101;-75
2022/05/14 12:03:23;;;;;;;7.28;4.72;;;;;;;;;;5050673;28;20025;-72
2022/05/14 12:06:11;;;;;;;8.73;4.68;;;;;;;;;;5050784;28;20047;-76
2022/05/14 12:08:39;;;;;;;8.80;4.18;;;;;;;;;;5054365;28;20028;-75
2022/05/14 12:11:44;;;;;;;6.28;3.75;;;;;;;;;;5069846;28;20463;-75
2022/05/14 12:14:18;;;;;;;8.38;4.38;;;;;;;;;;5070790;28;20075;-75
2022/05/14 12:16:49;;;;;;;6.10;4.78;;;;;;;;;;5071062;28;20323;-75
2022/05/14 12:19:27;;;;;;;10.45;5.28;;;;;;;;;;5071006;28;20062;-75
2022/05/14 12:22:03;;;;;;;5.28;3.60;;;;;;;;;;5071519;28;20040;-72
2022/05/14 12:24:33;;;;;;;5.78;3.80;;;;;;;;;;5071081;28;20041;-75
2022/05/14 12:27:00;;;;;;;5.43;3.67;;;;;;;;;;5070745;28;20032;-74
2022/05/14 12:29:27;;;;;;;5.47;3.83;;;;;;;;;;5071488;28;20460;-77
2022/05/14 12:34:54;;;;;;;4.93;3.55;;;;;;;;;;5070413;28;20502;-73
2022/05/14 12:37:26;;;;;;;7.45;3.42;;;;;;;;;;5070703;28;20025;-71
2022/05/14 12:39:56;;;;;;;7.80;4.35;;;;;;;;;;5071069;28;20035;-74
2022/05/14 12:42:36;;;;;;;8.35;4.13;;;;;;;;;;5070620;28;20024;-74
2022/05/14 12:45:03;;;;;;;5.30;3.67;;;;;;;;;;5070881;28;20497;-74
2022/05/14 12:47:31;;;;;;;7.60;3.60;;;;;;;;;;5070967;28;20466;-74
2022/05/14 12:49:58;;;;;;;6.75;4.10;;;;;;;;;;5070310;28;20032;-73
2022/05/14 12:52:32;;;;;;;8.57;6.70;;;;;;;;;;5071109;28;20104;-74
2022/05/14 12:54:59;;;;;;;6.40;4.18;;;;;;;;;;5086021;28;20028;-74
2022/05/14 12:57:27;;;;;;;11.82;4.10;;;;;;;;;;5069994;28;20040;-76
2022/05/14 12:59:54;;;;;;;5.43;3.78;;;;;;;;;;5070719;28;20036;-77
2022/05/14 13:02:28;;;;;;;10.38;3.88;;;;;;;;;;5056856;28;20093;-74
2022/05/14 13:05:03;;;;;;;5.03;3.65;;;;;;;;;;5050429;28;20072;-74
2022/05/14 13:07:30;;;;;;;7.07;3.75;;;;;;;;;;5050660;28;20501;-76
2022/05/14 13:09:57;;;;;;;5.15;3.50;;;;;;;;;;5049431;28;20040;-77
2022/05/14 13:12:27;;;;;;;7.20;3.80;;;;;;;;;;5050495;28;20136;-74
2022/05/14 13:14:57;;;;;;;6.32;3.95;;;;;;;;;;5050754;28;20055;-75
2022/05/14 13:17:38;;;;;;;5.18;3.53;;;;;;;;;;5051028;28;20059;-73
2022/05/14 13:20:18;;;;;;;5.93;3.42;;;;;;;;;;5062697;28;20024;-78
2022/05/14 13:22:45;;;;;;;6.05;3.70;;;;;;;;;;5074429;28;20028;-74
2022/05/14 13:25:31;;;;;;;5.72;3.72;;;;;;;;;;5074319;28;20024;-76
2022/05/14 13:28:34;;;;;;;7.38;3.47;;;;;;;;;;5054252;28;20052;-75
2022/05/14 13:31:04;;;;;;;5.07;3.70;;;;;;;;;;5053046;28;20067;-75
2022/05/14 13:33:40;;;;;;;6.70;3.47;;;;;;;;;;5071766;28;20041;-73
2022/05/14 13:39:05;;;;;;;6.05;3.55;;;;;;;;;;5074169;28;20028;-73
2022/05/14 13:41:39;;;;;;;10.93;3.83;;;;;;;;;;5073872;28;20163;-74
2022/05/14 13:44:05;;;;;;;5.75;3.90;;;;;;;;;;5073817;28;20401;-74
2022/05/14 13:46:40;;;;;;;5.18;3.58;;;;;;;;;;5074110;28;20025;-73
2022/05/14 13:49:06;;;;;;;8.13;3.33;;;;;;;;;;5073738;28;20186;-73
2022/05/14 13:51:36;;;;;;;12.73;4.40;;;;;;;;;;5073924;28;20104;-73
2022/05/14 13:54:14;;;;;;;5.80;3.78;;;;;;;;;;5074075;28;20119;-72
2022/05/14 13:56:44;;;;;;;7.55;3.85;;;;;;;;;;5073225;28;20068;-72
2022/05/14 13:59:27;;;;;;;8.63;3.58;;;;;;;;;;5073935;28;20029;-76
2022/05/14 14:02:13;;;;;;;;;;;;;;;;;;5074098;28;20028;-72
2022/05/14 14:04:41;;;;;;;4.97;3.50;;;;;;;;;;5072322;28;19969;-74
2022/05/14 14:07:10;;;;;;;5.45;3.70;;;;;;;;;;5061607;28;20029;-74
2022/05/14 14:09:38;;;;;;;7.28;3.72;;;;;;;;;;5054213;28;20490;-74
2022/05/14 14:12:04;;;;;;;6.00;3.63;;;;;;;;;;5053600;28;20528;-75
2022/05/14 14:14:31;;;;;;;4.45;3.60;;;;;;;;;;5053427;28;20041;-74
2022/05/14 14:16:56;;;;;;;6.07;3.80;;;;;;;;;;5053881;28;20032;-74
2022/05/14 14:19:25;;;;;;;11.00;3.45;;;;;;;;;;5053879;28;20040;-74
2022/05/14 14:21:52;;;;;;;5.35;3.42;;;;;;;;;;5053593;28;20017;-74
2022/05/14 14:24:21;;;;;;;7.15;3.80;;;;;;;;;;5053428;28;20624;-74
2022/05/14 14:26:49;;;;;;;4.95;3.47;;;;;;;;;;5052957;28;20646;-74
2022/05/14 14:29:18;;;;;;;5.63;3.47;;;;;;;;;;5053491;28;20037;-75
2022/05/14 14:31:45;;;;;;;7.63;3.78;;;;;;;;;;5052965;28;20021;-76
2022/05/14 14:34:11;;;;;;;7.53;3.38;;;;;;;;;;5053122;28;20063;-74
2022/05/14 14:36:37;;;;;;;4.75;3.45;;;;;;;;;;5053053;28;20029;-73
2022/05/14 14:39:06;;;;;;;4.38;3.50;;;;;;;;;;5053437;28;20040;-75
2022/05/14 14:41:32;;;;;;;4.30;3.50;;;;;;;;;;5052874;28;20021;-74
2022/05/14 14:43:58;;;;;;;7.03;3.30;;;;;;;;;;5053163;28;20399;-76
2022/05/14 14:46:24;;;;;;;4.95;3.17;;;;;;;;;;5053113;28;20040;-74
2022/05/14 14:48:53;;;;;;;5.72;3.53;;;;;;;;;;5052124;28;20037;-75
2022/05/14 14:51:23;;;;;;;5.70;3.40;;;;;;;;;;5052001;28;20453;-74
2022/05/14 14:53:50;;;;;;;7.35;3.67;;;;;;;;;;5052339;28;20108;-74
2022/05/14 14:56:16;;;;;;;5.20;3.30;;;;;;;;;;5053664;28;20052;-76
2022/05/14 14:58:44;;;;;;;6.32;3.05;;;;;;;;;;5052634;28;20464;-76
2022/05/14 15:01:15;;;;;;;8.68;3.42;;;;;;;;;;5053872;28;20051;-75
2022/05/14 15:03:45;;;;;;;4.82;3.25;;;;;;;;;;5053883;28;20111;-73
2022/05/14 15:06:15;;;;;;;4.53;3.38;;;;;;;;;;5052491;28;20029;-77
2022/05/14 15:08:43;;;;;;;7.68;3.33;;;;;;;;;;5053375;28;20029;-75
2022/05/14 15:11:18;;;;;;;4.90;3.10;;;;;;;;;;5052123;28;20056;-74
2022/05/14 15:13:47;;;;;;;4.53;3.17;;;;;;;;;;5052258;28;20139;-74
2022/05/14 15:16:12;;;;;;;6.35;3.10;;;;;;;;;;5052804;28;20032;-75
2022/05/14 15:18:42;;;;;;;7.28;3.25;;;;;;;;;;5051887;28;20183;-76
2022/05/14 15:21:08;;;;;;;5.25;3.17;;;;;;;;;;5053211;28;20060;-73